createdAt,value
2023-04-19T00:00:14.307Z,4.00
2023-04-19T00:01:14.269Z,4.00
2023-04-19T00:02:14.269Z,4.00
2023-04-19T00:03:14.369Z,4.00
2023-04-19T00:04:14.977Z,4.00
2023-04-19T00:05:14.256Z,4.00
2023-04-19T00:06:14.208Z,4.00
2023-04-19T00:07:14.173Z,4.00
2023-04-19T00:08:14.184Z,4.00
2023-04-19T00:09:14.192Z,4.00
2023-04-19T00:10:14.168Z,4.00
2023-04-19T00:11:13.410Z,4.00
2023-04-19T00:12:14.111Z,4.00
2023-04-19T00:13:14.111Z,4.00
2023-04-19T00:14:15.099Z,4.00
2023-04-19T00:15:14.079Z,4.00
2023-04-19T00:16:13.829Z,4.00
2023-04-19T00:17:14.026Z,4.00
2023-04-19T00:18:13.796Z,4.00
2023-04-19T00:19:13.761Z,4.00
2023-04-19T00:20:14.012Z,4.00
2023-04-19T00:21:14.002Z,4.00
2023-04-19T00:22:14.225Z,4.00
2023-04-19T00:23:13.970Z,4.00
2023-04-19T00:24:14.238Z,4.00
2023-04-19T00:25:13.949Z,4.00
2023-04-19T00:26:13.929Z,4.00
2023-04-19T00:27:13.532Z,4.00
2023-04-19T00:28:13.901Z,4.00
2023-04-19T00:29:13.891Z,4.00
2023-04-19T00:30:14.630Z,4.00
2023-04-19T00:31:13.943Z,4.00
2023-04-19T00:32:13.649Z,4.00
2023-04-19T00:33:13.883Z,4.00
2023-04-19T00:34:14.134Z,4.00
2023-04-19T00:35:13.745Z,4.00
2023-04-19T00:36:13.814Z,4.00
2023-04-19T00:37:14.513Z,4.00
2023-04-19T00:38:14.488Z,4.00
2023-04-19T00:39:14.499Z,4.00
2023-04-19T00:40:14.457Z,4.00
2023-04-19T00:41:14.469Z,4.00
2023-04-19T00:42:14.461Z,4.00
2023-04-19T00:43:14.417Z,4.00
2023-04-19T00:44:14.781Z,4.00
2023-04-19T00:45:14.408Z,4.00
2023-04-19T00:46:14.409Z,4.00
2023-04-19T00:47:14.374Z,4.00
2023-04-19T00:48:14.361Z,4.00
2023-04-19T00:49:14.360Z,4.00
2023-04-19T00:50:14.384Z,4.00
2023-04-19T00:51:13.608Z,4.00
2023-04-19T00:52:14.318Z,4.00
2023-04-19T00:53:13.558Z,4.00
2023-04-19T00:54:13.850Z,4.00
2023-04-19T00:55:13.584Z,4.00
2023-04-19T00:56:13.526Z,4.00
2023-04-19T00:57:14.195Z,4.00
2023-04-19T00:58:13.505Z,4.00
2023-04-19T00:59:12.844Z,4.00
2023-04-19T01:00:13.467Z,4.00
2023-04-19T01:01:13.487Z,4.00
2023-04-19T01:02:13.476Z,4.00
2023-04-19T01:03:13.602Z,4.00
2023-04-19T01:04:13.613Z,4.00
2023-04-19T01:05:13.404Z,4.00
2023-04-19T01:06:13.420Z,4.00
2023-04-19T01:07:13.348Z,4.00
2023-04-19T01:08:13.586Z,4.00
2023-04-19T01:09:13.361Z,4.00
2023-04-19T01:10:13.343Z,4.00
2023-04-19T01:11:13.321Z,4.00
2023-04-19T01:12:13.990Z,4.00
2023-04-19T01:13:13.289Z,4.00
2023-04-19T01:14:13.425Z,4.00
2023-04-19T01:15:13.257Z,4.00
2023-04-19T01:16:13.317Z,4.00
2023-04-19T01:17:13.208Z,4.00
2023-04-19T01:18:13.222Z,4.00
2023-04-19T01:19:13.932Z,4.00
2023-04-19T01:20:13.193Z,4.00
2023-04-19T01:21:13.188Z,4.00
2023-04-19T01:22:13.150Z,4.00
2023-04-19T01:23:13.149Z,4.00
2023-04-19T01:24:13.242Z,4.00
2023-04-19T01:25:13.807Z,4.00
2023-04-19T01:26:13.117Z,4.00
2023-04-19T01:27:13.109Z,4.00
2023-04-19T01:28:13.774Z,4.00
2023-04-19T01:29:13.070Z,4.00
2023-04-19T01:30:13.070Z,4.00
2023-04-19T01:31:12.520Z,4.00
2023-04-19T01:32:13.066Z,4.00
2023-04-19T01:33:13.004Z,4.00
2023-04-19T01:34:13.182Z,4.00
2023-04-19T01:35:12.999Z,4.00
2023-04-19T01:36:12.703Z,4.00
2023-04-19T01:37:12.958Z,4.00
2023-04-19T01:38:12.948Z,4.00
2023-04-19T01:39:12.685Z,4.00
2023-04-19T01:40:12.692Z,4.00
2023-04-19T01:41:12.913Z,4.00
2023-04-19T01:42:12.889Z,4.00
2023-04-19T01:43:12.874Z,4.00
2023-04-19T01:45:12.848Z,4.00
2023-04-19T01:46:13.575Z,4.00
2023-04-19T01:47:12.847Z,4.00
2023-04-19T01:48:12.794Z,4.00
2023-04-19T01:49:12.816Z,4.00
2023-04-19T01:50:12.793Z,4.00
2023-04-19T01:51:12.768Z,4.00
2023-04-19T01:52:12.791Z,4.00
2023-04-19T01:53:12.733Z,4.00
2023-04-19T01:54:12.896Z,4.00
2023-04-19T01:55:12.918Z,4.00
2023-04-19T01:56:12.707Z,4.00
2023-04-19T01:57:13.415Z,4.00
2023-04-19T01:58:12.669Z,4.00
2023-04-19T01:59:12.658Z,4.00
2023-04-19T02:00:13.316Z,4.00
2023-04-19T02:01:12.728Z,4.00
2023-04-19T02:02:13.394Z,4.00
2023-04-19T02:03:12.670Z,4.00
2023-04-19T02:04:12.622Z,4.00
2023-04-19T02:05:12.579Z,4.00
2023-04-19T02:06:13.245Z,4.00
2023-04-19T02:07:12.551Z,4.00
2023-04-19T02:08:12.525Z,4.00
2023-04-19T02:09:12.546Z,4.00
2023-04-19T02:10:12.512Z,4.00
2023-04-19T02:11:12.501Z,4.00
2023-04-19T02:12:12.514Z,4.00
2023-04-19T02:13:12.451Z,4.00
2023-04-19T02:14:12.459Z,4.00
2023-04-19T02:15:12.465Z,4.00
2023-04-19T02:16:13.192Z,4.00
2023-04-19T02:17:12.425Z,4.00
2023-04-19T02:18:12.386Z,4.00
2023-04-19T02:19:12.399Z,4.00
2023-04-19T02:20:12.390Z,4.00
2023-04-19T02:21:12.373Z,4.00
2023-04-19T02:22:12.353Z,4.00
2023-04-19T02:23:12.310Z,4.00
2023-04-19T02:24:12.336Z,4.00
2023-04-19T02:25:12.989Z,4.00
2023-04-19T02:26:12.297Z,4.00
2023-04-19T02:27:12.302Z,4.00
2023-04-19T02:28:12.240Z,4.00
2023-04-19T02:29:12.251Z,4.00
2023-04-19T02:30:12.260Z,4.00
2023-04-19T02:31:12.241Z,4.00
2023-04-19T02:32:11.920Z,4.00
2023-04-19T02:33:12.190Z,4.00
2023-04-19T02:34:12.263Z,4.00
2023-04-19T02:35:12.181Z,4.00
2023-04-19T02:36:12.170Z,4.00
2023-04-19T02:37:11.918Z,4.00
2023-04-19T02:38:11.914Z,4.00
2023-04-19T02:39:12.139Z,4.00
2023-04-19T02:40:12.795Z,4.00
2023-04-19T02:41:12.096Z,4.00
2023-04-19T02:42:12.100Z,4.00
2023-04-19T02:43:12.041Z,4.00
2023-04-19T02:44:12.099Z,4.00
2023-04-19T02:45:12.058Z,4.00
2023-04-19T02:46:12.042Z,4.00
2023-04-19T02:47:12.014Z,4.00
2023-04-19T02:48:12.048Z,4.00
2023-04-19T02:49:11.978Z,4.00
2023-04-19T02:50:11.968Z,4.00
2023-04-19T02:51:11.966Z,4.00
2023-04-19T02:52:12.611Z,4.00
2023-04-19T02:53:11.917Z,4.00
2023-04-19T02:54:11.949Z,4.00
2023-04-19T02:55:11.899Z,4.00
2023-04-19T02:56:12.604Z,4.00
2023-04-19T02:57:11.895Z,4.00
2023-04-19T02:58:12.540Z,4.00
2023-04-19T02:59:11.852Z,4.00
2023-04-19T03:00:12.580Z,4.00
2023-04-19T03:01:12.591Z,4.00
2023-04-19T03:02:12.561Z,4.00
2023-04-19T03:03:12.647Z,4.00
2023-04-19T03:04:12.555Z,4.00
2023-04-19T03:05:12.483Z,4.00
2023-04-19T03:06:12.496Z,4.00
2023-04-19T03:07:11.736Z,4.00
2023-04-19T03:08:12.469Z,4.00
2023-04-19T03:09:12.446Z,4.00
2023-04-19T03:10:11.710Z,4.00
2023-04-19T03:11:11.721Z,4.00
2023-04-19T03:12:11.673Z,4.00
2023-04-19T03:13:11.903Z,4.00
2023-04-19T03:14:11.655Z,4.00
2023-04-19T03:15:11.867Z,4.00
2023-04-19T03:16:11.642Z,4.00
2023-04-19T03:17:12.281Z,4.00
2023-04-19T03:18:11.569Z,4.00
2023-04-19T03:19:12.256Z,4.00
2023-04-19T03:20:12.241Z,4.00
2023-04-19T03:21:11.601Z,4.00
2023-04-19T03:22:11.555Z,4.00
2023-04-19T03:23:11.514Z,4.00
2023-04-19T03:24:11.501Z,4.00
2023-04-19T03:25:11.734Z,4.00
2023-04-19T03:26:11.474Z,4.00
2023-04-19T03:27:11.464Z,4.00
2023-04-19T03:28:12.180Z,4.00
2023-04-19T03:29:11.428Z,4.00
2023-04-19T03:30:11.424Z,4.00
2023-04-19T03:31:11.447Z,4.00
2023-04-19T03:32:11.388Z,4.00
2023-04-19T03:33:11.247Z,4.00
2023-04-19T03:34:11.366Z,4.00
2023-04-19T03:35:11.345Z,4.00
2023-04-19T03:36:12.029Z,4.00
2023-04-19T03:37:12.004Z,4.00
2023-04-19T03:38:11.286Z,4.00
2023-04-19T03:39:11.295Z,4.00
2023-04-19T03:40:11.298Z,4.00
2023-04-19T03:41:11.266Z,4.00
2023-04-19T03:42:11.258Z,4.00
2023-04-19T03:43:11.229Z,4.00
2023-04-19T03:44:11.225Z,4.00
2023-04-19T03:45:11.229Z,4.00
2023-04-19T03:46:11.265Z,4.00
2023-04-19T03:47:11.187Z,0.00
2023-04-19T03:48:11.952Z,0.00
2023-04-19T03:49:11.398Z,0.00
2023-04-19T03:50:11.143Z,0.00
2023-04-19T03:51:11.814Z,0.00
2023-04-19T03:52:11.786Z,0.00
2023-04-19T03:53:11.075Z,0.00
2023-04-19T03:54:11.092Z,0.00
2023-04-19T03:55:11.118Z,4.00
2023-04-19T03:56:11.067Z,4.00
2023-04-19T03:57:11.059Z,4.00
2023-04-19T03:58:11.730Z,4.00
2023-04-19T03:59:10.793Z,4.00
2023-04-19T04:00:10.819Z,4.00
2023-04-19T04:01:10.994Z,4.00
2023-04-19T04:02:11.113Z,4.00
2023-04-19T04:03:11.138Z,8.00
2023-04-19T04:04:11.065Z,4.00
2023-04-19T04:05:11.072Z,8.00
2023-04-19T04:06:10.985Z,4.00
2023-04-19T04:07:10.916Z,8.00
2023-04-19T04:08:10.899Z,8.00
2023-04-19T04:09:10.890Z,12.00
2023-04-19T04:10:10.877Z,12.00
2023-04-19T04:11:10.850Z,12.00
2023-04-19T04:12:10.854Z,16.00
2023-04-19T04:13:11.793Z,20.00
2023-04-19T04:14:10.813Z,24.00
2023-04-19T04:15:11.525Z,24.00
2023-04-19T04:16:10.833Z,28.00
2023-04-19T04:17:10.767Z,32.00
2023-04-19T04:18:10.764Z,40.00
2023-04-19T04:19:10.746Z,44.00
2023-04-19T04:20:10.746Z,52.00
2023-04-19T04:21:11.450Z,60.00
2023-04-19T04:22:10.694Z,68.00
2023-04-19T04:23:10.686Z,76.00
2023-04-19T04:24:10.702Z,92.00
2023-04-19T04:25:10.902Z,104.00
2023-04-19T04:26:10.646Z,120.00
2023-04-19T04:27:10.643Z,136.00
2023-04-19T04:28:10.612Z,152.00
2023-04-19T04:29:11.294Z,172.00
2023-04-19T04:30:11.281Z,188.00
2023-04-19T04:31:10.586Z,212.00
2023-04-19T04:32:11.429Z,236.00
2023-04-19T04:33:10.800Z,264.00
2023-04-19T04:34:10.550Z,292.00
2023-04-19T04:35:10.590Z,320.00
2023-04-19T04:36:10.521Z,348.00
2023-04-19T04:37:10.735Z,368.00
2023-04-19T04:38:21.549Z,400.00
2023-04-19T04:39:11.483Z,428.00
2023-04-19T04:40:10.476Z,452.00
2023-04-19T04:41:10.469Z,484.00
2023-04-19T04:42:10.452Z,520.00
2023-04-19T04:43:10.681Z,548.00
2023-04-19T04:44:12.999Z,588.00
2023-04-19T04:45:10.641Z,612.00
2023-04-19T04:46:10.455Z,648.00
2023-04-19T04:47:10.388Z,684.00
2023-04-19T04:48:10.284Z,728.00
2023-04-19T04:49:11.039Z,776.00
2023-04-19T04:50:10.354Z,832.00
2023-04-19T04:51:10.346Z,896.00
2023-04-19T04:52:10.325Z,964.00
2023-04-19T04:53:12.784Z,1016.00
2023-04-19T04:54:10.061Z,1060.00
2023-04-19T04:55:10.019Z,1084.00
2023-04-19T04:56:10.022Z,1112.00
2023-04-19T04:57:10.032Z,1152.00
2023-04-19T04:58:10.027Z,1200.00
2023-04-19T04:59:10.239Z,1252.00
2023-04-19T05:00:10.213Z,1288.00
2023-04-19T05:01:10.881Z,1344.00
2023-04-19T05:02:10.213Z,1384.00
2023-04-19T05:03:10.310Z,1416.00
2023-04-19T05:04:10.436Z,1468.00
2023-04-19T05:05:10.165Z,1512.00
2023-04-19T05:06:09.451Z,1544.00
2023-04-19T05:07:10.109Z,1600.00
2023-04-19T05:08:10.118Z,1684.00
2023-04-19T05:09:10.411Z,1752.00
2023-04-19T05:10:10.118Z,1800.00
2023-04-19T05:11:09.712Z,1916.00
2023-04-19T05:12:09.293Z,2028.00
2023-04-19T05:13:10.037Z,2088.00
2023-04-19T05:14:09.679Z,2132.00
2023-04-19T05:15:10.007Z,2160.00
2023-04-19T05:16:10.076Z,2212.00
2023-04-19T05:17:12.471Z,2300.00
2023-04-19T05:18:10.429Z,2400.00
2023-04-19T05:19:09.873Z,2500.00
2023-04-19T05:20:09.876Z,2604.00
2023-04-19T05:21:10.647Z,2704.00
2023-04-19T05:22:09.922Z,2876.00
2023-04-19T05:23:10.626Z,3000.00
2023-04-19T05:24:10.656Z,3048.00
2023-04-19T05:25:10.662Z,3052.00
2023-04-19T05:26:10.605Z,3064.00
2023-04-19T05:27:10.565Z,3132.00
2023-04-19T05:28:10.613Z,3204.00
2023-04-19T05:29:10.561Z,3332.00
2023-04-19T05:30:09.217Z,3456.00
2023-04-19T05:31:09.817Z,3568.00
2023-04-19T05:32:09.768Z,3616.00
2023-04-19T05:33:09.831Z,3628.00
2023-04-19T05:34:09.742Z,3640.00
2023-04-19T05:35:09.730Z,3668.00
2023-04-19T05:36:09.722Z,3700.00
2023-04-19T05:37:09.742Z,3740.00
2023-04-19T05:38:09.690Z,3756.00
2023-04-19T05:39:09.659Z,3740.00
2023-04-19T05:40:09.696Z,3720.00
2023-04-19T05:41:09.657Z,3756.00
2023-04-19T05:42:09.637Z,3824.00
2023-04-19T05:43:09.775Z,3880.00
2023-04-19T05:44:09.591Z,3960.00
2023-04-19T05:45:09.590Z,4032.00
2023-04-19T05:46:09.621Z,4164.00
2023-04-19T05:47:09.570Z,4308.00
2023-04-19T05:48:09.652Z,4468.00
2023-04-19T05:49:09.792Z,4584.00
2023-04-19T05:50:10.225Z,4664.00
2023-04-19T05:51:09.529Z,4756.00
2023-04-19T05:52:09.500Z,4840.00
2023-04-19T05:53:09.487Z,5048.00
2023-04-19T05:54:09.461Z,5312.00
2023-04-19T05:55:09.473Z,5508.00
2023-04-19T05:56:09.481Z,5584.00
2023-04-19T05:57:09.446Z,5660.00
2023-04-19T05:58:09.420Z,5736.00
2023-04-19T05:59:09.387Z,5816.00
2023-04-19T06:00:09.423Z,6012.00
2023-04-19T06:01:10.050Z,6216.00
2023-04-19T06:02:09.097Z,6384.00
2023-04-19T06:03:09.607Z,6500.00
2023-04-19T06:04:09.422Z,6612.00
2023-04-19T06:05:10.560Z,6712.00
2023-04-19T06:06:09.349Z,6744.00
2023-04-19T06:07:17.799Z,6828.00
2023-04-19T06:08:10.285Z,6852.00
2023-04-19T06:09:09.292Z,6892.00
2023-04-19T06:10:08.725Z,6956.00
2023-04-19T06:11:22.004Z,7084.00
2023-04-19T06:12:10.225Z,7176.00
2023-04-19T06:13:09.213Z,7292.00
2023-04-19T06:14:09.220Z,7456.00
2023-04-19T06:15:09.867Z,7548.00
2023-04-19T06:16:09.250Z,7604.00
2023-04-19T06:17:09.159Z,7744.00
2023-04-19T06:18:08.969Z,7896.00
2023-04-19T06:19:08.912Z,8012.00
2023-04-19T06:20:09.132Z,8092.00
2023-04-19T06:21:09.104Z,8112.00
2023-04-19T06:22:09.131Z,8124.00
2023-04-19T06:23:09.111Z,8160.00
2023-04-19T06:24:09.087Z,8244.00
2023-04-19T06:25:09.055Z,8324.00
2023-04-19T06:26:09.038Z,8400.00
2023-04-19T06:27:09.028Z,8456.00
2023-04-19T06:28:09.023Z,8556.00
2023-04-19T06:29:08.982Z,8696.00
2023-04-19T06:30:08.992Z,8852.00
2023-04-19T06:31:09.231Z,9012.00
2023-04-19T06:32:08.960Z,9172.00
2023-04-19T06:33:08.955Z,9272.00
2023-04-19T06:34:09.660Z,9380.00
2023-04-19T06:35:09.650Z,9492.00
2023-04-19T06:36:08.907Z,9680.00
2023-04-19T06:37:08.902Z,9868.00
2023-04-19T06:38:08.905Z,9928.00
2023-04-19T06:39:08.844Z,9876.00
2023-04-19T06:40:08.850Z,9732.00
2023-04-19T06:41:08.836Z,9644.00
2023-04-19T06:42:08.839Z,9628.00
2023-04-19T06:43:08.814Z,9704.00
2023-04-19T06:44:08.821Z,9896.00
2023-04-19T06:45:08.787Z,10136.00
2023-04-19T06:46:08.792Z,10364.00
2023-04-19T06:47:08.773Z,10436.00
2023-04-19T06:48:09.447Z,10480.00
2023-04-19T06:49:08.981Z,10480.00
2023-04-19T06:50:08.736Z,10500.00
2023-04-19T06:51:08.704Z,10512.00
2023-04-19T06:52:08.684Z,10636.00
2023-04-19T06:53:08.672Z,10868.00
2023-04-19T06:54:08.662Z,11088.00
2023-04-19T06:55:08.649Z,11344.00
2023-04-19T06:56:08.632Z,11584.00
2023-04-19T06:57:08.620Z,11940.00
2023-04-19T06:58:08.601Z,12244.00
2023-04-19T06:59:08.594Z,12520.00
2023-04-19T07:00:08.554Z,12728.00
2023-04-19T07:01:08.581Z,13096.00
2023-04-19T07:02:08.614Z,13428.00
2023-04-19T07:03:08.776Z,13728.00
2023-04-19T07:04:08.728Z,14116.00
2023-04-19T07:05:08.490Z,14544.00
2023-04-19T07:06:09.168Z,14848.00
2023-04-19T07:07:09.170Z,15068.00
2023-04-19T07:08:08.460Z,15168.00
2023-04-19T07:09:08.487Z,15284.00
2023-04-19T07:10:08.411Z,15488.00
2023-04-19T07:11:09.101Z,15648.00
2023-04-19T07:12:08.423Z,15700.00
2023-04-19T07:13:08.408Z,15992.00
2023-04-19T07:14:08.401Z,16156.00
2023-04-19T07:15:08.351Z,16508.00
2023-04-19T07:16:08.179Z,17216.00
2023-04-19T07:17:08.380Z,17696.00
2023-04-19T07:18:08.359Z,18048.00
2023-04-19T07:19:08.305Z,18208.00
2023-04-19T07:20:08.421Z,18240.00
2023-04-19T07:21:08.295Z,18336.00
2023-04-19T07:22:08.268Z,18304.00
2023-04-19T07:23:08.267Z,18240.00
2023-04-19T07:24:08.250Z,18656.00
2023-04-19T07:25:08.926Z,19232.00
2023-04-19T07:26:08.217Z,19616.00
2023-04-19T07:27:08.881Z,20128.00
2023-04-19T07:28:08.186Z,20960.00
2023-04-19T07:29:08.864Z,21536.00
2023-04-19T07:30:08.135Z,21184.00
2023-04-19T07:31:08.824Z,21280.00
2023-04-19T07:32:08.935Z,21984.00
2023-04-19T07:33:08.933Z,23456.00
2023-04-19T07:34:08.162Z,23520.00
2023-04-19T07:35:08.074Z,22592.00
2023-04-19T07:36:08.100Z,24288.00
2023-04-19T07:37:08.068Z,27136.00
2023-04-19T07:38:08.049Z,27040.00
2023-04-19T07:39:08.061Z,26560.00
2023-04-19T07:40:08.767Z,26976.00
2023-04-19T07:41:08.741Z,26080.00
2023-04-19T07:42:08.681Z,26272.00
2023-04-19T07:43:08.713Z,28704.00
2023-04-19T07:44:08.694Z,27584.00
2023-04-19T07:45:08.713Z,27680.00
2023-04-19T07:46:08.674Z,26112.00
2023-04-19T07:47:08.657Z,25728.00
2023-04-19T07:48:08.203Z,23232.00
2023-04-19T07:49:07.896Z,21984.00
2023-04-19T07:50:07.877Z,23264.00
2023-04-19T07:51:07.889Z,24896.00
2023-04-19T07:52:07.872Z,25408.00
2023-04-19T07:53:07.856Z,26560.00
2023-04-19T07:54:07.844Z,27840.00
2023-04-19T07:55:07.797Z,29792.00
2023-04-19T07:56:07.826Z,31552.00
2023-04-19T07:57:07.809Z,32384.00
2023-04-19T07:58:07.776Z,59488.00
2023-04-19T07:59:09.313Z,31808.00
2023-04-19T08:00:07.737Z,32320.00
2023-04-19T08:01:07.782Z,30912.00
2023-04-19T08:02:07.830Z,31616.00
2023-04-19T08:03:08.013Z,32096.00
2023-04-19T08:04:08.658Z,28480.00
2023-04-19T08:05:08.071Z,27136.00
2023-04-19T08:06:08.394Z,26752.00
2023-04-19T08:07:07.680Z,24832.00
2023-04-19T08:08:07.669Z,23328.00
2023-04-19T08:09:07.631Z,21888.00
2023-04-19T08:10:07.860Z,22784.00
2023-04-19T08:11:07.660Z,25152.00
2023-04-19T08:12:07.594Z,26528.00
2023-04-19T08:13:07.581Z,28960.00
2023-04-19T08:14:15.124Z,33312.00
2023-04-19T08:17:24.089Z,39072.00
2023-04-19T08:18:08.581Z,37760.00
2023-04-19T08:19:07.513Z,37440.00
2023-04-19T08:20:07.453Z,35776.00
2023-04-19T08:21:07.475Z,34304.00
2023-04-19T08:22:07.457Z,60448.00
2023-04-19T08:23:20.475Z,62272.00
2023-04-19T08:24:09.079Z,34144.00
2023-04-19T08:25:07.390Z,29248.00
2023-04-19T08:26:07.406Z,33088.00
2023-04-19T08:27:08.112Z,30528.00
2023-04-19T08:28:07.370Z,32128.00
2023-04-19T08:29:07.382Z,29792.00
2023-04-19T08:30:07.317Z,27200.00
2023-04-19T08:31:07.376Z,29120.00
2023-04-19T08:32:07.368Z,30880.00
2023-04-19T08:33:07.992Z,28928.00
2023-04-19T08:34:07.354Z,35776.00
2023-04-19T08:35:07.269Z,35008.00
2023-04-19T08:36:07.024Z,41408.00
2023-04-19T08:37:07.020Z,64992.00
2023-04-19T08:38:07.922Z,45248.00
2023-04-19T08:39:14.867Z,35840.00
2023-04-19T08:40:08.183Z,33824.00
2023-04-19T08:41:07.199Z,31360.00
2023-04-19T08:42:13.422Z,32800.00
2023-04-19T08:43:08.382Z,34176.00
2023-04-19T08:44:08.391Z,34848.00
2023-04-19T08:46:07.993Z,38560.00
2023-04-19T08:47:07.142Z,39616.00
2023-04-19T08:48:07.130Z,37312.00
2023-04-19T08:49:06.610Z,33568.00
2023-04-19T08:50:14.024Z,29248.00
2023-04-19T08:51:08.800Z,25440.00
2023-04-19T08:52:07.050Z,24128.00
2023-04-19T08:53:24.078Z,22624.00
2023-04-19T08:54:08.025Z,19040.00
2023-04-19T08:55:07.024Z,15612.00
2023-04-19T08:57:06.976Z,15304.00
2023-04-19T08:58:12.261Z,17024.00
2023-04-19T08:59:18.159Z,15680.00
2023-04-19T09:00:08.618Z,14480.00
2023-04-19T09:01:06.971Z,15448.00
2023-04-19T09:02:06.990Z,18304.00
2023-04-19T09:03:07.093Z,19200.00
2023-04-19T09:04:17.163Z,17824.00
2023-04-19T09:05:08.821Z,16348.00
2023-04-19T09:06:07.580Z,16896.00
2023-04-19T09:07:06.876Z,21440.00
2023-04-19T09:08:06.817Z,28608.00
2023-04-19T09:09:08.742Z,31424.00
2023-04-19T09:10:06.993Z,29696.00
2023-04-19T09:11:06.891Z,27808.00
2023-04-19T09:12:06.758Z,33984.00
2023-04-19T09:13:06.762Z,25184.00
2023-04-19T09:14:06.746Z,26176.00
2023-04-19T09:15:07.965Z,25728.00
2023-04-19T09:16:06.758Z,23584.00
2023-04-19T09:17:06.720Z,25856.00
2023-04-19T09:18:06.733Z,30848.00
2023-04-19T09:19:19.552Z,35136.00
2023-04-19T09:20:07.642Z,35008.00
2023-04-19T09:21:06.663Z,31104.00
2023-04-19T09:22:06.649Z,26176.00
2023-04-19T09:23:07.301Z,21632.00
2023-04-19T09:24:06.614Z,17664.00
2023-04-19T09:26:22.682Z,12096.00
2023-04-19T09:27:07.577Z,10856.00
2023-04-19T09:28:06.572Z,10220.00
2023-04-19T09:29:06.540Z,9888.00
2023-04-19T09:30:07.305Z,9848.00
2023-04-19T09:31:20.363Z,9928.00
2023-04-19T09:32:07.744Z,10416.00
2023-04-19T09:33:06.323Z,11228.00
2023-04-19T09:34:06.268Z,11952.00
2023-04-19T09:35:06.291Z,12684.00
2023-04-19T09:36:06.255Z,13516.00
2023-04-19T09:37:13.462Z,15080.00
2023-04-19T09:38:07.430Z,16960.00
2023-04-19T09:39:06.411Z,17280.00
2023-04-19T09:40:06.379Z,17248.00
2023-04-19T09:41:06.380Z,18976.00
2023-04-19T09:42:05.633Z,22944.00
2023-04-19T09:43:29.089Z,27904.00
2023-04-19T09:44:33.770Z,30688.00
2023-04-19T09:46:06.349Z,32640.00
2023-04-19T09:47:06.336Z,33664.00
2023-04-19T09:48:06.352Z,34560.00
2023-04-19T09:49:17.142Z,32384.00
2023-04-19T09:50:19.305Z,29376.00
2023-04-19T09:51:10.561Z,25664.00
2023-04-19T09:52:07.269Z,23424.00
2023-04-19T09:53:06.194Z,24864.00
2023-04-19T09:54:06.225Z,27072.00
2023-04-19T09:55:14.655Z,26304.00
2023-04-19T09:56:07.155Z,25600.00
2023-04-19T09:57:06.143Z,26336.00
2023-04-19T09:58:06.169Z,27680.00
2023-04-19T09:59:19.944Z,30272.00
2023-04-19T10:00:07.077Z,33856.00
2023-04-19T10:01:15.001Z,35712.00
2023-04-19T10:02:07.946Z,34880.00
2023-04-19T10:03:06.143Z,32896.00
2023-04-19T10:04:23.887Z,32288.00
2023-04-19T10:05:19.813Z,32928.00
2023-04-19T10:06:14.495Z,33312.00
2023-04-19T10:07:29.281Z,37088.00
2023-04-19T10:08:07.048Z,43200.00
2023-04-19T10:09:06.674Z,40192.00
2023-04-19T10:10:18.577Z,36512.00
2023-04-19T10:11:06.957Z,37824.00
2023-04-19T10:12:18.509Z,36416.00
2023-04-19T10:13:19.278Z,36704.00
2023-04-19T10:14:06.916Z,37952.00
2023-04-19T10:15:05.893Z,36992.00
2023-04-19T10:16:18.119Z,37248.00
2023-04-19T10:17:06.908Z,40224.00
2023-04-19T10:18:05.937Z,43488.00
2023-04-19T10:19:08.188Z,47136.00
2023-04-19T10:20:05.808Z,49344.00
2023-04-19T10:21:05.834Z,48832.00
2023-04-19T10:22:05.797Z,48448.00
2023-04-19T10:23:05.840Z,47488.00
2023-04-19T10:24:06.503Z,44704.00
2023-04-19T10:25:05.746Z,43424.00
2023-04-19T10:26:06.460Z,42304.00
2023-04-19T10:27:06.462Z,40128.00
2023-04-19T10:28:05.737Z,36320.00
2023-04-19T10:29:05.708Z,32832.00
2023-04-19T10:30:07.396Z,27840.00
2023-04-19T10:31:05.705Z,24224.00
2023-04-19T10:32:06.461Z,21728.00
2023-04-19T10:33:05.672Z,18944.00
2023-04-19T10:34:05.638Z,18272.00
2023-04-19T10:35:05.860Z,19040.00
2023-04-19T10:36:06.292Z,19616.00
2023-04-19T10:37:05.598Z,19424.00
2023-04-19T10:38:05.588Z,18336.00
2023-04-19T10:39:05.578Z,16992.00
2023-04-19T10:40:05.539Z,15888.00
2023-04-19T10:41:05.555Z,15628.00
2023-04-19T10:42:05.528Z,15496.00
2023-04-19T10:43:05.533Z,15396.00
2023-04-19T10:44:05.543Z,16104.00
2023-04-19T10:45:06.183Z,18048.00
2023-04-19T10:46:05.214Z,22080.00
2023-04-19T10:47:05.459Z,27648.00
2023-04-19T10:48:05.454Z,32576.00
2023-04-19T10:49:05.521Z,35552.00
2023-04-19T10:50:05.424Z,34656.00
2023-04-19T10:51:05.383Z,32544.00
2023-04-19T10:52:05.396Z,29120.00
2023-04-19T10:53:05.379Z,26112.00
2023-04-19T10:54:05.149Z,23712.00
2023-04-19T10:55:06.085Z,21504.00
2023-04-19T10:56:05.359Z,19904.00
2023-04-19T10:57:06.251Z,18752.00
2023-04-19T10:58:05.324Z,18016.00
2023-04-19T10:59:05.063Z,18400.00
2023-04-19T11:00:05.298Z,19584.00
2023-04-19T11:01:05.083Z,20416.00
2023-04-19T11:02:05.477Z,20288.00
2023-04-19T11:03:06.102Z,20032.00
2023-04-19T11:04:05.674Z,19296.00
2023-04-19T11:05:05.244Z,19200.00
2023-04-19T11:06:05.435Z,20128.00
2023-04-19T11:07:05.189Z,21696.00
2023-04-19T11:08:05.175Z,23296.00
2023-04-19T11:09:05.172Z,25984.00
2023-04-19T11:10:05.888Z,28960.00
2023-04-19T11:11:05.120Z,30368.00
2023-04-19T11:12:05.170Z,30176.00
2023-04-19T11:13:05.103Z,29760.00
2023-04-19T11:14:05.098Z,29920.00
2023-04-19T11:15:05.329Z,30240.00
2023-04-19T11:16:05.072Z,30112.00
2023-04-19T11:17:05.611Z,28960.00
2023-04-19T11:18:12.443Z,27808.00
2023-04-19T11:19:06.020Z,26656.00
2023-04-19T11:20:05.016Z,24832.00
2023-04-19T11:21:05.258Z,22752.00
2023-04-19T11:22:04.974Z,21504.00
2023-04-19T11:23:04.978Z,21216.00
2023-04-19T11:24:04.988Z,20160.00
2023-04-19T11:25:04.937Z,17888.00
2023-04-19T11:26:04.941Z,17024.00
2023-04-19T11:27:04.889Z,16632.00
2023-04-19T11:28:04.898Z,15328.00
2023-04-19T11:29:04.889Z,14144.00
2023-04-19T11:30:04.871Z,13476.00
2023-04-19T11:31:05.096Z,12720.00
2023-04-19T11:32:04.851Z,12820.00
2023-04-19T11:33:04.899Z,14816.00
2023-04-19T11:34:04.822Z,16576.00
2023-04-19T11:35:04.809Z,17536.00
2023-04-19T11:36:04.788Z,18400.00
2023-04-19T11:37:05.459Z,19296.00
2023-04-19T11:38:04.767Z,19296.00
2023-04-19T11:39:04.757Z,19296.00
2023-04-19T11:40:05.307Z,18400.00
2023-04-19T11:41:04.724Z,16608.00
2023-04-19T11:42:04.676Z,15324.00
2023-04-19T11:43:04.692Z,15176.00
2023-04-19T11:44:04.728Z,17696.00
2023-04-19T11:45:06.164Z,19392.00
2023-04-19T11:46:04.655Z,18208.00
2023-04-19T11:47:04.819Z,15616.00
2023-04-19T11:48:04.649Z,14456.00
2023-04-19T11:49:04.616Z,15904.00
2023-04-19T11:50:04.361Z,18752.00
2023-04-19T11:51:04.589Z,19264.00
2023-04-19T11:52:05.930Z,19008.00
2023-04-19T11:53:04.561Z,20064.00
2023-04-19T11:54:04.376Z,20480.00
2023-04-19T11:55:04.534Z,20096.00
2023-04-19T11:56:04.520Z,22336.00
2023-04-19T11:57:04.493Z,27584.00
2023-04-19T11:58:04.368Z,30464.00
2023-04-19T11:59:04.468Z,29760.00
2023-04-19T12:00:04.477Z,28032.00
2023-04-19T12:01:04.452Z,26240.00
2023-04-19T12:02:04.475Z,25344.00
2023-04-19T12:03:04.545Z,25952.00
2023-04-19T12:04:04.504Z,29152.00
2023-04-19T12:05:04.483Z,32640.00
2023-04-19T12:06:04.629Z,35456.00
2023-04-19T12:07:05.057Z,37920.00
2023-04-19T12:08:05.075Z,39296.00
2023-04-19T12:09:04.358Z,39680.00
2023-04-19T12:10:04.337Z,40192.00
2023-04-19T12:11:04.319Z,41248.00
2023-04-19T12:12:04.311Z,42592.00
2023-04-19T12:13:04.553Z,44736.00
2023-04-19T12:14:04.268Z,45568.00
2023-04-19T12:15:04.031Z,44480.00
2023-04-19T12:16:04.240Z,43904.00
2023-04-19T12:17:04.944Z,45312.00
2023-04-19T12:18:04.959Z,47936.00
2023-04-19T12:19:04.201Z,47712.00
2023-04-19T12:20:04.201Z,46880.00
2023-04-19T12:21:04.168Z,46240.00
2023-04-19T12:22:04.890Z,45504.00
2023-04-19T12:23:04.130Z,44416.00
2023-04-19T12:24:04.128Z,43296.00
2023-04-19T12:25:04.342Z,42656.00
2023-04-19T12:26:04.101Z,42080.00
2023-04-19T12:27:04.111Z,41312.00